createdAt,value
2018-12-26T00:01:43.661Z,8.34
2018-12-26T00:07:38.533Z,8.43
2018-12-26T00:13:33.541Z,6.91
2018-12-26T00:19:28.528Z,9.17
2018-12-26T00:25:23.566Z,8.17
2018-12-26T00:31:18.557Z,6.87
2018-12-26T00:37:13.543Z,6.49
2018-12-26T00:43:08.556Z,7.02
2018-12-26T00:49:03.553Z,7.9
2018-12-26T00:54:58.568Z,10.07
2018-12-26T01:00:53.551Z,7.15
2018-12-26T01:06:48.560Z,8.54
2018-12-26T01:12:43.544Z,6.44
2018-12-26T01:18:38.566Z,4.96
2018-12-26T01:24:33.579Z,6.19
2018-12-26T01:30:28.577Z,7.88
2018-12-26T01:36:23.558Z,5.87
2018-12-26T01:42:18.571Z,6.02
2018-12-26T01:48:13.570Z,10.03
2018-12-26T01:54:08.585Z,7.97
2018-12-26T02:00:03.609Z,7.62
2018-12-26T02:05:58.596Z,4.71
2018-12-26T02:11:53.587Z,6.9
2018-12-26T02:17:48.580Z,8.83
2018-12-26T02:23:43.588Z,8.71
2018-12-26T02:29:38.596Z,7.73
2018-12-26T02:35:33.598Z,8.96
2018-12-26T02:41:28.601Z,5.89
2018-12-26T02:47:23.585Z,9.62
2018-12-26T02:53:18.607Z,9.93
2018-12-26T02:59:13.758Z,10.27
2018-12-26T03:05:08.625Z,10.7
2018-12-26T03:11:03.621Z,8.55
2018-12-26T03:16:58.618Z,8.91
2018-12-26T03:22:53.622Z,15.05
2018-12-26T03:28:48.669Z,8.28
2018-12-26T03:34:43.629Z,11.53
2018-12-26T03:40:38.613Z,10.36
2018-12-26T03:46:33.661Z,11.13
2018-12-26T03:52:28.698Z,9.7
2018-12-26T03:58:23.721Z,11.98
2018-12-26T04:04:18.630Z,11
2018-12-26T04:10:13.653Z,9.6
2018-12-26T04:16:08.648Z,10.08
2018-12-26T04:22:03.640Z,13.4
2018-12-26T04:27:58.664Z,10.01
2018-12-26T04:33:53.694Z,10.76
2018-12-26T04:39:48.678Z,11.16
2018-12-26T04:45:43.688Z,11.52
2018-12-26T04:51:38.673Z,12.46
2018-12-26T04:57:33.658Z,15.77
2018-12-26T05:03:28.660Z,13.4
2018-12-26T05:09:23.773Z,14.77
2018-12-26T05:15:18.676Z,10.3
2018-12-26T05:21:13.672Z,8.07
2018-12-26T05:27:08.676Z,13.29
2018-12-26T05:33:03.694Z,14.2
2018-12-26T05:38:58.678Z,12.38
2018-12-26T05:44:53.684Z,10.67
2018-12-26T05:50:48.708Z,14.38
2018-12-26T05:56:43.714Z,12.38
2018-12-26T06:02:38.716Z,13.55
2018-12-26T06:08:33.686Z,12.23
2018-12-26T06:14:28.713Z,9.24
2018-12-26T06:20:23.700Z,11.36
2018-12-26T06:26:18.733Z,12.93
2018-12-26T06:32:13.698Z,9.42
2018-12-26T06:38:08.728Z,11.03
2018-12-26T06:44:03.723Z,8.36
2018-12-26T06:49:58.753Z,7.54
2018-12-26T06:55:53.721Z,7.9
2018-12-26T07:01:48.700Z,6
2018-12-26T07:07:43.699Z,8.2
2018-12-26T07:13:38.714Z,7.43
2018-12-26T07:19:33.715Z,5.64
2018-12-26T07:25:28.706Z,8.17
2018-12-26T07:31:23.745Z,6.79
2018-12-26T07:37:18.731Z,7.8
2018-12-26T07:43:13.731Z,7.9
2018-12-26T07:49:08.736Z,7.48
2018-12-26T07:55:03.744Z,8.73
2018-12-26T08:00:58.731Z,12.24
2018-12-26T08:06:53.783Z,18.62
2018-12-26T08:12:48.774Z,25.6
2018-12-26T08:18:43.736Z,23.16
2018-12-26T08:24:38.746Z,35.01
2018-12-26T08:30:33.766Z,22.93
2018-12-26T08:36:28.792Z,23.26
2018-12-26T08:42:23.793Z,19.89
2018-12-26T08:48:18.745Z,17.9
2018-12-26T08:54:13.762Z,21.76
2018-12-26T09:00:08.760Z,18.78
2018-12-26T09:06:03.753Z,17.54
2018-12-26T09:11:58.802Z,26.18
2018-12-26T09:17:53.772Z,21.78
2018-12-26T09:23:48.819Z,24.04
2018-12-26T09:29:43.762Z,23.9
2018-12-26T09:35:38.769Z,31.12
2018-12-26T09:41:33.837Z,28.14
2018-12-26T09:47:28.788Z,29.28
2018-12-26T09:53:23.793Z,28.13
2018-12-26T09:59:18.776Z,35.3
2018-12-26T10:05:13.778Z,51.43
2018-12-26T10:11:08.792Z,28.96
2018-12-26T10:17:03.796Z,27.5
2018-12-26T10:22:58.857Z,28.42
2018-12-26T10:29:00.863Z,30.68
2018-12-26T10:34:48.861Z,41.54
2018-12-26T10:40:43.851Z,32.48
2018-12-26T10:46:38.791Z,27.52
2018-12-26T10:52:33.832Z,23.93
2018-12-26T10:58:28.814Z,24.94
2018-12-26T11:04:23.818Z,22.63
2018-12-26T11:10:18.824Z,20.83
2018-12-26T11:16:13.813Z,26.54
2018-12-26T11:22:08.831Z,19.95
2018-12-26T11:28:03.815Z,21.63
2018-12-26T11:33:58.823Z,16.39
2018-12-26T11:39:53.839Z,17.75
2018-12-26T11:45:48.835Z,15.47
2018-12-26T11:51:43.844Z,19.01
2018-12-26T11:57:38.858Z,16.58
2018-12-26T12:03:33.830Z,16.01
2018-12-26T12:09:28.895Z,17.85
2018-12-26T12:15:23.828Z,21.05
2018-12-26T12:21:18.844Z,17.68
2018-12-26T12:27:13.874Z,17.55
2018-12-26T12:33:08.914Z,21.4
2018-12-26T12:39:03.857Z,20.06
2018-12-26T12:44:58.882Z,14.73
2018-12-26T12:50:53.882Z,13.23
2018-12-26T12:56:48.917Z,32.29
2018-12-26T13:02:43.887Z,10.84
2018-12-26T13:08:38.890Z,7.8
2018-12-26T13:14:33.895Z,11.7
2018-12-26T13:20:28.898Z,9.22
2018-12-26T13:26:23.924Z,9.01
2018-12-26T13:32:18.904Z,12.06
2018-12-26T13:38:13.890Z,11.44
2018-12-26T13:44:08.912Z,10.4
2018-12-26T13:50:03.912Z,12.1
2018-12-26T13:55:58.936Z,10.11
2018-12-26T14:01:53.898Z,8.08
2018-12-26T14:07:48.927Z,6.72
2018-12-26T14:13:43.922Z,7.21
2018-12-26T14:19:38.943Z,5.53
2018-12-26T14:25:33.956Z,5.93
2018-12-26T14:31:28.959Z,5.6
2018-12-26T14:37:23.959Z,16.23
2018-12-26T14:43:18.941Z,12.3
2018-12-26T14:49:13.968Z,9.82
2018-12-26T14:55:08.979Z,13.84
2018-12-26T15:01:04.003Z,14.6
2018-12-26T15:06:58.970Z,22.17
2018-12-26T15:12:54.056Z,14.55
2018-12-26T15:18:49.013Z,33.21
2018-12-26T15:24:43.995Z,25.06
2018-12-26T15:30:38.949Z,22.19
2018-12-26T15:36:34.004Z,19.27
2018-12-26T15:42:28.994Z,19.76
2018-12-26T15:48:23.992Z,15.57
2018-12-26T15:54:19.026Z,13.96
2018-12-26T16:00:14.014Z,19.44
2018-12-26T16:06:08.992Z,15.56
2018-12-26T16:12:03.991Z,14.31
2018-12-26T16:17:59.028Z,16.8
2018-12-26T16:23:54.012Z,19.19
2018-12-26T16:29:49.009Z,13.91
2018-12-26T16:35:44.002Z,14.04
2018-12-26T16:41:39.082Z,25.27
2018-12-26T16:47:34.037Z,50.42
2018-12-26T16:53:29.029Z,25.11
2018-12-26T16:59:24.011Z,11.48
2018-12-26T17:05:19.077Z,11.22
2018-12-26T17:11:14.038Z,12.62
2018-12-26T17:17:09.069Z,11.24
2018-12-26T17:23:04.099Z,12.99
2018-12-26T17:28:59.046Z,12.45
2018-12-26T17:34:54.034Z,30.72
2018-12-26T17:40:49.046Z,18.35
2018-12-26T17:46:44.075Z,8.75
2018-12-26T17:52:39.049Z,5.28
2018-12-26T17:58:34.075Z,10.42
2018-12-26T18:04:29.324Z,15.1
2018-12-26T18:10:24.041Z,15.17
2018-12-26T18:16:19.055Z,19.43
2018-12-26T18:22:14.058Z,16.44
2018-12-26T18:28:09.064Z,11.52
2018-12-26T18:34:04.084Z,8.13
2018-12-26T18:39:59.080Z,11.75
2018-12-26T18:45:54.096Z,23.73
2018-12-26T18:51:49.132Z,21.87
2018-12-26T18:57:44.084Z,36.89
2018-12-26T19:03:39.069Z,23.83
2018-12-26T19:09:34.118Z,10.83
2018-12-26T19:15:29.107Z,17.83
2018-12-26T19:21:24.068Z,22.77
2018-12-26T19:27:19.097Z,15.49
2018-12-26T19:33:14.106Z,12.98
2018-12-26T19:39:09.108Z,19.8
2018-12-26T19:45:04.132Z,18.14
2018-12-26T19:50:59.114Z,19.86
2018-12-26T19:56:54.108Z,13.98
2018-12-26T20:02:49.115Z,15.71
2018-12-26T20:08:44.108Z,13.01
2018-12-26T20:14:39.191Z,30.29
2018-12-26T20:20:34.110Z,22.5
2018-12-26T20:26:29.142Z,18.4
2018-12-26T20:32:27.785Z,22.84
2018-12-26T20:38:19.141Z,23.07
2018-12-26T20:44:14.129Z,26.57
2018-12-26T20:50:09.149Z,27.25
2018-12-26T20:56:04.143Z,21
2018-12-26T21:02:05.553Z,19.02
2018-12-26T21:07:54.123Z,13.72
2018-12-26T21:13:49.123Z,15.56
2018-12-26T21:19:44.187Z,15.74
2018-12-26T21:25:39.146Z,12.11
2018-12-26T21:31:34.259Z,17.42
2018-12-26T21:37:29.160Z,16.3
2018-12-26T21:43:24.187Z,12.7
2018-12-26T21:49:19.149Z,13.06
2018-12-26T21:55:14.179Z,12.37
2018-12-26T22:01:10.676Z,22.22
2018-12-26T22:07:04.187Z,14.94
2018-12-26T22:12:59.179Z,14.63
2018-12-26T22:18:54.183Z,11.99
2018-12-26T22:24:49.158Z,15.93
2018-12-26T22:30:44.229Z,20.06
2018-12-26T22:36:39.192Z,12.85
2018-12-26T22:42:34.177Z,26.71
2018-12-26T22:48:29.178Z,15.85
2018-12-26T22:54:24.194Z,14.36
2018-12-26T23:00:19.171Z,18.34
2018-12-26T23:06:14.210Z,25.82
2018-12-26T23:12:09.205Z,22.47
2018-12-26T23:18:04.189Z,23.59
2018-12-26T23:23:59.215Z,23.27
2018-12-26T23:29:54.203Z,32.21
2018-12-26T23:35:49.194Z,22.07
2018-12-26T23:41:44.237Z,17.96
2018-12-26T23:47:39.224Z,21.55
2018-12-26T23:53:34.217Z,27.75
2018-12-26T23:59:29.223Z,22.23
